createdAt,value
2022-10-16T00:01:41.330Z,10.35
2022-10-16T00:04:09.760Z,13.50
2022-10-16T00:06:37.286Z,6.87
2022-10-16T00:09:04.951Z,10.55
2022-10-16T00:11:39.927Z,7.55
2022-10-16T00:14:12.289Z,8.73
2022-10-16T00:16:40.276Z,15.40
2022-10-16T00:19:07.879Z,9.63
2022-10-16T00:21:35.309Z,8.88
2022-10-16T00:24:21.052Z,10.82
2022-10-16T00:26:50.376Z,9.82
2022-10-16T00:29:17.901Z,9.23
2022-10-16T00:31:45.380Z,13.95
2022-10-16T00:34:12.749Z,10.77
2022-10-16T00:36:40.312Z,8.93
2022-10-16T00:39:08.216Z,10.43
2022-10-16T00:41:35.741Z,8.73
2022-10-16T00:44:24.723Z,8.45
2022-10-16T00:46:52.154Z,7.57
2022-10-16T00:49:21.276Z,9.45
2022-10-16T00:51:51.217Z,8.70
2022-10-16T00:54:25.949Z,11.05
2022-10-16T00:56:55.205Z,8.65
2022-10-16T00:59:40.388Z,12.65
2022-10-16T01:02:10.676Z,10.73
2022-10-16T01:04:40.031Z,7.97
2022-10-16T01:07:32.436Z,7.82
2022-10-16T01:10:16.448Z,8.85
2022-10-16T01:12:56.236Z,7.55
2022-10-16T01:15:30.722Z,8.10
2022-10-16T01:17:59.758Z,8.25
2022-10-16T01:20:33.232Z,10.75
2022-10-16T01:23:21.723Z,13.77
2022-10-16T01:26:28.780Z,6.93
2022-10-16T01:28:59.796Z,8.57
2022-10-16T01:31:30.603Z,9.85
2022-10-16T01:34:04.229Z,7.00
2022-10-16T01:36:39.285Z,8.55
2022-10-16T01:39:07.994Z,10.20
2022-10-16T01:41:43.006Z,8.13
2022-10-16T01:44:27.070Z,7.50
2022-10-16T01:46:55.171Z,14.57
2022-10-16T01:49:24.593Z,9.40
2022-10-16T01:51:56.527Z,10.38
2022-10-16T01:54:29.784Z,8.13
2022-10-16T01:56:57.707Z,8.77
2022-10-16T01:59:27.369Z,9.00
2022-10-16T02:01:58.432Z,8.15
2022-10-16T02:07:01.918Z,8.70
2022-10-16T02:09:30.968Z,9.27
2022-10-16T02:12:00.649Z,9.30
2022-10-16T02:14:28.016Z,10.70
2022-10-16T02:16:55.713Z,10.35
2022-10-16T02:19:23.260Z,11.55
2022-10-16T02:21:52.912Z,9.68
2022-10-16T02:24:51.670Z,8.05
2022-10-16T02:27:24.716Z,9.70
2022-10-16T02:29:59.732Z,11.98
2022-10-16T02:32:31.706Z,9.68
2022-10-16T02:35:00.441Z,8.75
2022-10-16T02:37:28.295Z,8.02
2022-10-16T02:39:57.815Z,9.35
2022-10-16T02:42:31.024Z,7.85
2022-10-16T02:44:58.568Z,10.45
2022-10-16T02:47:26.160Z,11.00
2022-10-16T02:49:53.532Z,11.55
2022-10-16T02:52:20.802Z,9.68
2022-10-16T02:54:48.382Z,11.20
2022-10-16T02:57:15.775Z,10.73
2022-10-16T02:59:43.072Z,7.95
2022-10-16T03:02:10.649Z,9.25
2022-10-16T03:04:38.139Z,10.30
2022-10-16T03:07:05.615Z,8.32
2022-10-16T03:09:33.260Z,9.60
2022-10-16T03:12:00.555Z,7.47
2022-10-16T03:17:00.404Z,9.68
2022-10-16T03:19:27.695Z,8.57
2022-10-16T03:21:54.992Z,8.15
2022-10-16T03:24:22.536Z,11.38
2022-10-16T03:26:49.807Z,9.40
2022-10-16T03:29:17.124Z,9.25
2022-10-16T03:31:44.724Z,7.55
2022-10-16T03:34:12.183Z,10.10
2022-10-16T03:36:39.478Z,8.38
2022-10-16T03:39:07.244Z,7.43
2022-10-16T03:41:34.525Z,11.18
2022-10-16T03:44:01.824Z,12.37
2022-10-16T03:46:29.647Z,9.57
2022-10-16T03:48:56.950Z,14.87
2022-10-16T03:51:24.315Z,10.90
2022-10-16T03:53:51.985Z,8.02
2022-10-16T03:56:19.268Z,9.80
2022-10-16T03:58:46.565Z,10.05
2022-10-16T04:01:14.198Z,12.32
2022-10-16T04:03:42.040Z,10.30
2022-10-16T04:06:09.843Z,9.60
2022-10-16T04:08:37.632Z,11.40
2022-10-16T04:11:05.717Z,8.85
2022-10-16T04:13:33.015Z,10.70
2022-10-16T04:16:00.324Z,9.80
2022-10-16T04:18:28.237Z,8.98
2022-10-16T04:20:55.556Z,7.12
2022-10-16T04:23:23.951Z,8.70
2022-10-16T04:25:51.878Z,11.57
2022-10-16T04:28:19.218Z,9.18
2022-10-16T04:30:46.564Z,8.43
2022-10-16T04:33:14.128Z,7.55
2022-10-16T04:35:41.478Z,8.32
2022-10-16T04:38:09.306Z,9.65
2022-10-16T04:40:39.731Z,9.40
2022-10-16T04:43:08.303Z,8.52
2022-10-16T04:45:35.590Z,9.48
2022-10-16T04:48:03.184Z,7.95
2022-10-16T04:50:30.475Z,8.43
2022-10-16T04:53:01.510Z,8.10
2022-10-16T04:55:29.070Z,8.68
2022-10-16T04:57:56.355Z,8.60
2022-10-16T05:00:23.681Z,8.32
2022-10-16T05:02:52.038Z,7.68
2022-10-16T05:05:20.458Z,10.50
2022-10-16T05:07:48.475Z,9.85
2022-10-16T05:10:16.351Z,9.90
2022-10-16T05:12:44.361Z,9.25
2022-10-16T05:15:11.692Z,8.93
2022-10-16T05:17:42.560Z,10.35
2022-10-16T05:20:13.046Z,9.48
2022-10-16T05:22:40.622Z,9.23
2022-10-16T05:25:07.984Z,9.48
2022-10-16T05:27:35.276Z,11.23
2022-10-16T05:30:03.017Z,17.27
2022-10-16T05:32:30.372Z,31.00
2022-10-16T05:34:57.727Z,25.45
2022-10-16T05:37:25.559Z,19.35
2022-10-16T05:39:53.048Z,13.57
2022-10-16T05:42:20.331Z,15.40
2022-10-16T05:44:47.888Z,13.88
2022-10-16T05:47:15.435Z,11.40
2022-10-16T05:49:42.747Z,13.20
2022-10-16T05:52:10.297Z,10.35
2022-10-16T05:54:37.597Z,13.98
2022-10-16T05:57:06.624Z,13.77
2022-10-16T05:59:34.187Z,10.40
2022-10-16T06:02:01.486Z,13.93
2022-10-16T06:04:29.044Z,11.38
2022-10-16T06:07:01.205Z,11.32
2022-10-16T06:09:28.787Z,16.02
2022-10-16T06:11:56.410Z,14.00
2022-10-16T06:14:23.726Z,9.45
2022-10-16T06:16:51.286Z,10.95
2022-10-16T06:19:19.420Z,12.70
2022-10-16T06:21:47.041Z,10.23
2022-10-16T06:24:14.655Z,8.00
2022-10-16T06:26:41.943Z,10.68
2022-10-16T06:29:09.484Z,9.35
2022-10-16T06:31:37.115Z,11.40
2022-10-16T06:34:06.611Z,11.18
2022-10-16T06:36:33.891Z,11.43
2022-10-16T06:39:01.554Z,9.90
2022-10-16T06:41:28.860Z,11.00
2022-10-16T06:43:57.019Z,11.77
2022-10-16T06:46:25.838Z,9.68
2022-10-16T06:48:55.952Z,9.77
2022-10-16T06:51:24.949Z,16.15
2022-10-16T06:54:03.456Z,9.95
2022-10-16T06:56:32.851Z,9.90
2022-10-16T06:59:00.955Z,12.82
2022-10-16T07:01:28.540Z,10.93
2022-10-16T07:03:55.882Z,11.30
2022-10-16T07:06:25.068Z,9.15
2022-10-16T07:08:52.383Z,11.95
2022-10-16T07:11:21.980Z,11.95
2022-10-16T07:13:54.429Z,10.48
2022-10-16T07:16:28.522Z,11.63
2022-10-16T07:19:00.650Z,8.65
2022-10-16T07:21:30.819Z,9.20
2022-10-16T07:24:00.443Z,14.55
2022-10-16T07:26:28.919Z,13.38
2022-10-16T07:28:57.707Z,10.32
2022-10-16T07:31:25.955Z,10.40
2022-10-16T07:33:53.579Z,11.27
2022-10-16T07:36:21.669Z,9.55
2022-10-16T07:38:51.033Z,11.10
2022-10-16T07:41:20.892Z,12.98
2022-10-16T07:43:49.647Z,10.77
2022-10-16T07:46:18.029Z,10.02
2022-10-16T07:48:47.971Z,11.90
2022-10-16T07:51:17.917Z,12.93
2022-10-16T07:53:45.782Z,8.30
2022-10-16T07:56:13.507Z,11.93
2022-10-16T07:58:40.939Z,15.38
2022-10-16T08:01:10.744Z,10.80
2022-10-16T08:03:38.710Z,10.30
2022-10-16T08:06:06.254Z,10.80
2022-10-16T08:08:33.680Z,10.57
2022-10-16T08:11:01.225Z,9.75
2022-10-16T08:13:28.501Z,9.98
2022-10-16T08:15:56.283Z,12.13
2022-10-16T08:18:24.002Z,10.90
2022-10-16T08:20:58.962Z,12.13
2022-10-16T08:23:27.461Z,11.30
2022-10-16T08:25:55.647Z,12.57
2022-10-16T08:28:23.659Z,10.75
2022-10-16T08:30:51.286Z,8.65
2022-10-16T08:33:18.676Z,9.65
2022-10-16T08:35:54.440Z,8.25
2022-10-16T08:38:22.397Z,10.77
2022-10-16T08:40:52.767Z,15.00
2022-10-16T08:43:21.984Z,9.10
2022-10-16T08:45:58.693Z,9.48
2022-10-16T08:48:30.425Z,11.20
2022-10-16T08:50:58.084Z,9.23
2022-10-16T08:53:32.531Z,7.68
2022-10-16T08:56:00.237Z,9.55
2022-10-16T08:58:29.667Z,11.98
2022-10-16T09:01:00.147Z,12.23
2022-10-16T09:04:05.422Z,20.60
2022-10-16T09:06:57.215Z,15.15
2022-10-16T09:09:42.415Z,13.73
2022-10-16T09:12:15.400Z,14.87
2022-10-16T09:14:58.024Z,10.35
2022-10-16T09:20:12.845Z,11.23
2022-10-16T09:22:40.374Z,11.70
2022-10-16T09:25:19.148Z,11.68
2022-10-16T09:27:49.236Z,12.35
2022-10-16T09:30:21.350Z,10.38
2022-10-16T09:32:51.281Z,9.85
2022-10-16T09:35:21.722Z,12.27
2022-10-16T09:37:51.127Z,10.55
2022-10-16T09:40:36.633Z,8.70
2022-10-16T09:43:19.151Z,11.82
2022-10-16T09:45:59.904Z,11.23
2022-10-16T09:48:45.140Z,12.98
2022-10-16T09:51:26.889Z,10.82
2022-10-16T09:54:02.325Z,11.77
2022-10-16T09:56:33.546Z,11.60
2022-10-16T09:59:04.086Z,12.05
2022-10-16T10:01:38.576Z,9.50
2022-10-16T10:04:06.681Z,10.18
2022-10-16T10:06:48.467Z,8.70
2022-10-16T10:09:25.829Z,9.45
2022-10-16T10:12:00.423Z,10.13
2022-10-16T10:14:38.825Z,9.23
2022-10-16T10:17:06.217Z,8.63
2022-10-16T10:19:41.532Z,8.50
2022-10-16T10:22:21.071Z,15.43
2022-10-16T10:25:00.475Z,8.63
2022-10-16T10:27:35.875Z,9.57
2022-10-16T10:30:26.379Z,8.75
2022-10-16T10:33:21.179Z,8.23
2022-10-16T10:36:31.894Z,13.07
2022-10-16T10:39:07.254Z,11.70
2022-10-16T10:42:01.816Z,8.23
2022-10-16T10:44:53.908Z,8.57
2022-10-16T10:47:53.127Z,10.40
2022-10-16T10:50:35.694Z,9.23
2022-10-16T10:53:40.052Z,7.03
2022-10-16T10:56:46.378Z,10.90
2022-10-16T10:59:41.104Z,7.82
2022-10-16T11:02:27.061Z,7.90
2022-10-16T11:05:32.278Z,11.93
2022-10-16T11:08:03.441Z,7.60
2022-10-16T11:10:52.980Z,12.18
2022-10-16T11:13:27.327Z,10.23
2022-10-16T11:15:58.812Z,8.73
2022-10-16T11:18:38.805Z,9.03
2022-10-16T11:21:11.793Z,9.27
2022-10-16T11:24:20.604Z,7.57
2022-10-16T11:26:49.039Z,7.78
2022-10-16T11:29:21.915Z,6.70
2022-10-16T11:31:53.915Z,7.97
2022-10-16T11:34:38.652Z,8.57
2022-10-16T11:37:22.504Z,7.00
2022-10-16T11:39:51.361Z,7.95
2022-10-16T11:42:34.452Z,4.90
2022-10-16T11:45:08.176Z,6.90
2022-10-16T11:50:32.819Z,8.15
2022-10-16T11:53:06.082Z,9.35
2022-10-16T11:55:44.553Z,7.18
2022-10-16T11:58:31.801Z,7.05
2022-10-16T12:01:02.088Z,5.70
2022-10-16T12:03:44.966Z,4.85
2022-10-16T12:06:27.076Z,7.80
2022-10-16T12:08:55.060Z,5.22
2022-10-16T12:11:28.415Z,6.57
2022-10-16T12:14:21.440Z,8.40
2022-10-16T12:16:57.373Z,8.60
2022-10-16T12:19:27.572Z,5.12
2022-10-16T12:22:00.370Z,6.95
2022-10-16T12:24:34.076Z,6.40
2022-10-16T12:27:01.803Z,5.20
2022-10-16T12:29:39.079Z,7.55
2022-10-16T12:35:24.981Z,8.75
2022-10-16T12:37:52.930Z,5.70
2022-10-16T12:40:30.065Z,6.12
2022-10-16T12:42:57.673Z,6.28
2022-10-16T12:45:33.506Z,6.53
2022-10-16T12:48:02.945Z,7.43
2022-10-16T12:50:32.384Z,4.78
2022-10-16T12:53:01.192Z,7.00
2022-10-16T12:55:43.241Z,5.62
2022-10-16T12:58:40.698Z,7.60
2022-10-16T13:01:23.484Z,6.00
2022-10-16T13:04:19.322Z,6.57
2022-10-16T13:06:54.379Z,10.45
2022-10-16T13:09:29.155Z,6.28
2022-10-16T13:12:15.515Z,5.30
2022-10-16T13:15:18.708Z,6.87
2022-10-16T13:17:54.959Z,8.13
2022-10-16T13:20:24.907Z,6.28
2022-10-16T13:22:57.380Z,8.00
2022-10-16T13:25:40.783Z,7.10
2022-10-16T13:28:09.629Z,7.80
2022-10-16T13:30:41.505Z,5.62
2022-10-16T13:33:21.277Z,6.62
2022-10-16T13:35:51.693Z,6.18
2022-10-16T13:38:20.718Z,7.12
2022-10-16T13:40:52.125Z,6.35
2022-10-16T13:43:21.423Z,5.10
2022-10-16T13:46:18.725Z,8.10
2022-10-16T13:49:04.197Z,5.78
2022-10-16T13:51:32.551Z,5.47
2022-10-16T13:54:00.510Z,8.30
2022-10-16T13:56:30.219Z,9.57
2022-10-16T13:59:05.398Z,9.43
2022-10-16T14:01:41.856Z,6.53
2022-10-16T14:04:11.471Z,7.30
2022-10-16T14:06:42.757Z,6.05
2022-10-16T14:09:31.027Z,3.87
2022-10-16T14:12:03.651Z,6.15
2022-10-16T14:14:36.848Z,5.15
2022-10-16T14:17:04.275Z,6.18
2022-10-16T14:19:32.485Z,5.45
2022-10-16T14:22:01.045Z,8.00
2022-10-16T14:24:33.390Z,6.07
2022-10-16T14:27:01.574Z,13.13
2022-10-16T14:29:32.481Z,7.90
2022-10-16T14:32:02.035Z,6.05
2022-10-16T14:34:38.223Z,7.85
2022-10-16T14:37:18.116Z,5.97
2022-10-16T14:39:50.409Z,7.30
2022-10-16T14:42:20.205Z,6.70
2022-10-16T14:44:48.644Z,11.65
2022-10-16T14:47:18.267Z,6.78
2022-10-16T14:49:45.616Z,7.30
2022-10-16T14:52:13.518Z,7.60
2022-10-16T14:54:41.076Z,6.12
2022-10-16T14:57:18.974Z,7.07
2022-10-16T14:59:47.215Z,7.32
2022-10-16T15:02:35.167Z,6.55
2022-10-16T15:05:15.712Z,6.97
2022-10-16T15:07:43.344Z,8.23
2022-10-16T15:10:11.438Z,8.82
2022-10-16T15:12:38.851Z,10.20
2022-10-16T15:15:21.659Z,6.70
2022-10-16T15:18:01.233Z,6.55
2022-10-16T15:20:31.071Z,6.43
2022-10-16T15:22:58.659Z,6.90
2022-10-16T15:25:35.614Z,4.95
2022-10-16T15:28:04.596Z,4.57
2022-10-16T15:30:32.059Z,8.00
2022-10-16T15:32:59.659Z,8.10
2022-10-16T15:35:27.240Z,4.18
2022-10-16T15:37:54.886Z,5.55
2022-10-16T15:40:23.532Z,7.30
2022-10-16T15:42:51.122Z,5.47
2022-10-16T15:45:20.033Z,9.18
2022-10-16T15:47:47.560Z,9.90
2022-10-16T15:50:16.516Z,9.20
2022-10-16T15:52:43.937Z,6.15
2022-10-16T15:55:12.811Z,7.07
2022-10-16T15:57:42.242Z,9.65
2022-10-16T16:00:14.443Z,8.13
2022-10-16T16:02:43.091Z,14.57
2022-10-16T16:05:11.900Z,15.32
2022-10-16T16:07:40.282Z,14.00
2022-10-16T16:10:09.425Z,13.10
2022-10-16T16:12:37.548Z,13.98
2022-10-16T16:15:06.760Z,17.52
2022-10-16T16:17:35.393Z,24.35
2022-10-16T16:20:03.243Z,20.08
2022-10-16T16:22:31.016Z,19.33
2022-10-16T16:24:58.900Z,18.42
2022-10-16T16:27:26.764Z,20.98
2022-10-16T16:29:56.169Z,16.20
2022-10-16T16:32:23.754Z,16.33
2022-10-16T16:34:51.040Z,15.57
2022-10-16T16:37:18.385Z,16.65
2022-10-16T16:39:46.136Z,20.42
2022-10-16T16:42:13.669Z,19.80
2022-10-16T16:44:40.963Z,24.08
2022-10-16T16:47:08.539Z,26.45
2022-10-16T16:49:36.133Z,36.63
2022-10-16T16:52:03.596Z,31.12
2022-10-16T16:54:31.292Z,30.23
2022-10-16T16:56:58.688Z,26.55
2022-10-16T16:59:26.056Z,26.17
2022-10-16T17:01:56.977Z,27.67
2022-10-16T17:04:24.887Z,29.65
2022-10-16T17:06:54.049Z,36.00
2022-10-16T17:09:22.064Z,34.63
2022-10-16T17:11:49.607Z,33.42
2022-10-16T17:14:16.945Z,36.25
2022-10-16T17:16:45.004Z,31.62
2022-10-16T17:19:15.624Z,33.40
2022-10-16T17:21:43.342Z,33.45
2022-10-16T17:24:11.339Z,34.13
2022-10-16T17:26:41.317Z,31.95
2022-10-16T17:29:11.703Z,30.75
2022-10-16T17:31:39.342Z,30.23
2022-10-16T17:34:08.445Z,25.77
2022-10-16T17:36:37.223Z,27.58
2022-10-16T17:39:07.937Z,34.05
2022-10-16T17:41:36.677Z,31.92
2022-10-16T17:44:05.263Z,30.35
2022-10-16T17:46:36.958Z,38.30
2022-10-16T17:49:07.531Z,43.40
2022-10-16T17:51:35.171Z,39.40
2022-10-16T17:54:03.119Z,34.80
2022-10-16T17:56:30.956Z,40.00
2022-10-16T17:59:00.830Z,45.58
2022-10-16T18:01:33.593Z,42.60
2022-10-16T18:04:07.245Z,41.33
2022-10-16T18:06:34.707Z,41.40
2022-10-16T18:09:02.952Z,45.22
2022-10-16T18:11:30.703Z,44.72
2022-10-16T18:13:59.166Z,44.55
2022-10-16T18:16:28.147Z,42.62
2022-10-16T18:18:59.570Z,49.67
2022-10-16T18:21:28.382Z,46.50
2022-10-16T18:23:57.714Z,44.10
2022-10-16T18:26:25.182Z,47.72
2022-10-16T18:28:54.236Z,44.55
2022-10-16T18:31:23.077Z,42.88
2022-10-16T18:33:51.399Z,42.28
2022-10-16T18:36:21.574Z,38.47
2022-10-16T18:38:48.996Z,36.97
2022-10-16T18:41:16.559Z,34.88
2022-10-16T18:43:44.405Z,33.83
2022-10-16T18:46:14.296Z,32.72
2022-10-16T18:48:42.307Z,33.65
2022-10-16T18:51:17.870Z,32.97
2022-10-16T18:53:48.586Z,35.30
2022-10-16T18:56:17.774Z,32.70
2022-10-16T18:58:48.219Z,30.10
2022-10-16T19:01:20.925Z,32.08
2022-10-16T19:03:49.457Z,32.75
2022-10-16T19:06:17.202Z,28.90
2022-10-16T19:08:44.628Z,29.98
2022-10-16T19:11:13.874Z,41.47
2022-10-16T19:13:42.539Z,48.87
2022-10-16T19:16:20.466Z,50.33
2022-10-16T19:18:50.561Z,33.60
2022-10-16T19:21:18.581Z,35.38
2022-10-16T19:23:46.057Z,40.80
2022-10-16T19:26:16.222Z,36.55
2022-10-16T19:28:44.739Z,35.13
2022-10-16T19:31:14.885Z,33.33
2022-10-16T19:33:42.619Z,28.12
2022-10-16T19:36:18.465Z,31.62
2022-10-16T19:38:46.668Z,34.55
2022-10-16T19:41:17.106Z,33.72
2022-10-16T19:43:45.094Z,35.17
2022-10-16T19:46:15.140Z,31.25
2022-10-16T19:48:42.954Z,26.42
2022-10-16T19:51:18.474Z,24.25
2022-10-16T19:53:47.091Z,24.17
2022-10-16T19:56:22.072Z,25.52
2022-10-16T19:58:50.869Z,26.92
2022-10-16T20:01:18.541Z,23.05
2022-10-16T20:03:47.383Z,22.75
2022-10-16T20:06:17.293Z,19.50
2022-10-16T20:08:45.852Z,23.33
2022-10-16T20:11:16.136Z,24.50
2022-10-16T20:13:43.811Z,26.80
2022-10-16T20:16:12.289Z,22.08
2022-10-16T20:18:40.851Z,23.45
2022-10-16T20:21:13.532Z,24.05
2022-10-16T20:23:41.404Z,26.95
2022-10-16T20:26:11.452Z,28.30
2022-10-16T20:28:40.544Z,24.40
2022-10-16T20:31:23.461Z,22.98
2022-10-16T20:33:52.263Z,18.92
2022-10-16T20:36:21.597Z,24.75
2022-10-16T20:38:49.201Z,22.92
2022-10-16T20:41:17.021Z,29.08
2022-10-16T20:43:46.967Z,24.33
2022-10-16T20:46:16.637Z,22.10
2022-10-16T20:48:44.717Z,23.00
2022-10-16T20:51:16.019Z,23.12
2022-10-16T20:53:45.335Z,22.48
2022-10-16T20:56:15.721Z,24.37
2022-10-16T20:58:43.454Z,25.48
2022-10-16T21:01:13.666Z,26.52
2022-10-16T21:03:41.485Z,24.58
2022-10-16T21:06:09.607Z,25.35
2022-10-16T21:08:42.094Z,25.52
2022-10-16T21:11:21.038Z,26.23
2022-10-16T21:13:49.191Z,24.77
2022-10-16T21:16:17.199Z,27.45
2022-10-16T21:18:45.052Z,24.33
2022-10-16T21:21:20.530Z,26.83
2022-10-16T21:23:49.224Z,21.12
2022-10-16T21:26:18.126Z,21.60
2022-10-16T21:28:45.485Z,20.83
2022-10-16T21:31:18.673Z,18.73
2022-10-16T21:33:46.907Z,20.02
2022-10-16T21:36:29.245Z,16.90
2022-10-16T21:39:01.047Z,18.50
2022-10-16T21:41:29.168Z,17.52
2022-10-16T21:43:57.511Z,18.30
2022-10-16T21:46:27.179Z,19.73
2022-10-16T21:48:56.339Z,17.50
2022-10-16T21:51:28.368Z,22.20
2022-10-16T21:56:23.476Z,19.33
2022-10-16T21:58:50.770Z,17.83
2022-10-16T22:01:21.129Z,19.30
2022-10-16T22:03:48.946Z,19.10
2022-10-16T22:06:18.594Z,18.75
2022-10-16T22:08:47.836Z,17.17
2022-10-16T22:11:22.011Z,15.38
2022-10-16T22:13:54.169Z,17.55
2022-10-16T22:16:26.104Z,17.27
2022-10-16T22:18:54.702Z,17.65
2022-10-16T22:21:22.359Z,20.12
2022-10-16T22:23:50.056Z,19.52
2022-10-16T22:26:17.355Z,16.33
2022-10-16T22:28:44.691Z,18.60
2022-10-16T22:31:13.985Z,17.62
2022-10-16T22:33:41.488Z,14.95
2022-10-16T22:36:11.880Z,15.00
2022-10-16T22:38:39.733Z,17.95
2022-10-16T22:41:09.946Z,15.63
2022-10-16T22:43:43.063Z,16.02
2022-10-16T22:46:16.002Z,15.18
2022-10-16T22:48:43.375Z,17.60
2022-10-16T22:51:16.582Z,12.73
2022-10-16T22:53:49.040Z,13.73
2022-10-16T22:56:18.211Z,18.40
2022-10-16T22:58:45.552Z,15.65
2022-10-16T23:01:37.311Z,17.05
2022-10-16T23:04:05.527Z,12.88
2022-10-16T23:06:33.652Z,15.48
2022-10-16T23:09:02.082Z,13.18
2022-10-16T23:11:30.717Z,16.15
2022-10-16T23:13:58.059Z,15.52
2022-10-16T23:16:25.540Z,13.02
2022-10-16T23:18:53.185Z,13.62
2022-10-16T23:21:23.372Z,15.65
2022-10-16T23:23:51.804Z,11.27
2022-10-16T23:26:21.656Z,13.90
2022-10-16T23:28:49.104Z,12.48
2022-10-16T23:31:17.001Z,12.98
2022-10-16T23:33:44.748Z,16.23
2022-10-16T23:36:14.980Z,19.98
2022-10-16T23:38:43.318Z,13.73
2022-10-16T23:41:11.390Z,11.48
2022-10-16T23:43:38.938Z,12.75
2022-10-16T23:46:07.468Z,12.63
2022-10-16T23:48:35.207Z,12.40
2022-10-16T23:51:02.490Z,15.25
2022-10-16T23:53:29.925Z,13.27
2022-10-16T23:55:57.493Z,11.07
2022-10-16T23:58:24.811Z,14.15
